sensor_id;sensor_type;location;lat;lon;timestamp;pressure;altitude;pressure_sealevel;temperature;humidity
62111;BME280;48102;47.526;19.072;2022-08-03T03:42:52;100533.28;;;17.87;98.63
62111;BME280;48102;47.526;19.072;2022-08-03T03:45:57;100533.28;;;17.87;98.63
62111;BME280;48102;47.526;19.072;2022-08-03T03:48:59;100534.66;;;17.33;100.00
62111;BME280;48102;47.526;19.072;2022-08-03T03:52:07;100536.97;;;17.38;100.00
62111;BME280;48102;47.526;19.072;2022-08-03T03:55:14;100534.81;;;17.43;100.00
62111;BME280;48102;47.526;19.072;2022-08-03T03:58:20;100535.22;;;17.49;100.00
62111;BME280;48102;47.526;19.072;2022-08-03T04:01:26;100534.97;;;17.52;100.00
62111;BME280;48102;47.526;19.072;2022-08-03T04:04:31;100532.81;;;17.58;100.00
62111;BME280;48102;47.526;19.072;2022-08-03T04:08:08;100537.44;;;17.67;100.00
62111;BME280;48102;47.526;19.072;2022-08-03T04:11:40;100543.56;;;17.80;99.66
62111;BME280;48102;47.526;19.072;2022-08-03T04:14:47;100546.25;;;17.91;98.19
62111;BME280;48102;47.526;19.072;2022-08-03T04:17:52;100550.53;;;18.05;96.29
62111;BME280;48102;47.526;19.072;2022-08-03T04:21:06;100552.13;;;18.19;95.28
62111;BME280;48102;47.526;19.072;2022-08-03T04:24:11;100559.75;;;18.35;95.84
62111;BME280;48102;47.526;19.072;2022-08-03T04:27:19;100555.87;;;18.50;94.26
62111;BME280;48102;47.526;19.072;2022-08-03T04:30:25;100559.66;;;18.70;90.16
62111;BME280;48102;47.526;19.072;2022-08-03T04:33:31;100562.69;;;18.88;90.06
62111;BME280;48102;47.526;19.072;2022-08-03T04:36:41;100559.59;;;19.03;89.38
62111;BME280;48102;47.526;19.072;2022-08-03T04:39:47;100564.66;;;19.18;87.03
62111;BME280;48102;47.526;19.072;2022-08-03T04:42:52;100559.47;;;19.37;85.58
62111;BME280;48102;47.526;19.072;2022-08-03T04:45:57;100570.59;;;19.53;84.33
62111;BME280;48102;47.526;19.072;2022-08-03T04:49:01;100574.41;;;19.72;83.21
62111;BME280;48102;47.526;19.072;2022-08-03T04:52:07;100572.16;;;19.88;83.57
62111;BME280;48102;47.526;19.072;2022-08-03T04:55:11;100585.91;;;20.04;83.23
62111;BME280;48102;47.526;19.072;2022-08-03T04:58:14;100588.38;;;20.17;82.59
62111;BME280;48102;47.526;19.072;2022-08-03T05:01:17;100584.25;;;20.34;82.28
62111;BME280;48102;47.526;19.072;2022-08-03T05:04:21;100592.78;;;20.49;81.18
62111;BME280;48102;47.526;19.072;2022-08-03T05:07:24;100603.59;;;20.68;80.51
62111;BME280;48102;47.526;19.072;2022-08-03T05:10:27;100604.91;;;20.84;80.27
62111;BME280;48102;47.526;19.072;2022-08-03T05:13:30;100596.06;;;21.02;79.84
62111;BME280;48102;47.526;19.072;2022-08-03T05:16:32;100599.37;;;21.16;79.11
62111;BME280;48102;47.526;19.072;2022-08-03T05:19:35;100608.41;;;21.24;78.39
62111;BME280;48102;47.526;19.072;2022-08-03T05:22:37;100611.09;;;21.24;77.64
62111;BME280;48102;47.526;19.072;2022-08-03T05:25:40;100618.34;;;21.43;77.07
62111;BME280;48102;47.526;19.072;2022-08-03T05:28:52;100620.47;;;21.59;76.67
62111;BME280;48102;47.526;19.072;2022-08-03T05:31:54;100617.19;;;21.75;75.94
62111;BME280;48102;47.526;19.072;2022-08-03T05:34:57;100623.97;;;21.89;75.67
62111;BME280;48102;47.526;19.072;2022-08-03T05:38:21;100624.81;;;22.09;73.18
62111;BME280;48102;47.526;19.072;2022-08-03T05:41:35;100629.63;;;22.24;73.20
62111;BME280;48102;47.526;19.072;2022-08-03T05:44:39;100629.84;;;22.41;71.95
62111;BME280;48102;47.526;19.072;2022-08-03T05:47:43;100629.50;;;22.53;71.05
62111;BME280;48102;47.526;19.072;2022-08-03T05:50:46;100634.72;;;22.65;70.55
62111;BME280;48102;47.526;19.072;2022-08-03T05:53:49;100633.84;;;22.74;71.09
62111;BME280;48102;47.526;19.072;2022-08-03T05:56:52;100627.97;;;22.88;70.08
62111;BME280;48102;47.526;19.072;2022-08-03T05:59:55;100635.72;;;23.01;70.46
62111;BME280;48102;47.526;19.072;2022-08-03T06:03:00;100636.38;;;23.13;68.79
62111;BME280;48102;47.526;19.072;2022-08-03T06:06:04;100634.78;;;23.38;68.34
62111;BME280;48102;47.526;19.072;2022-08-03T06:09:06;100639.34;;;23.55;68.50
62111;BME280;48102;47.526;19.072;2022-08-03T06:12:09;100638.59;;;23.63;65.93
62111;BME280;48102;47.526;19.072;2022-08-03T06:15:15;100646.50;;;23.82;66.05
62111;BME280;48102;47.526;19.072;2022-08-03T06:18:20;100646.66;;;23.98;66.51
62111;BME280;48102;47.526;19.072;2022-08-03T06:21:22;100646.78;;;23.43;72.89
62111;BME280;48102;47.526;19.072;2022-08-03T06:24:28;100652.88;;;23.63;69.71
62111;BME280;48102;47.526;19.072;2022-08-03T06:27:31;100650.69;;;23.76;67.98
62111;BME280;48102;47.526;19.072;2022-08-03T06:30:40;100647.56;;;24.07;66.97
62111;BME280;48102;47.526;19.072;2022-08-03T06:33:43;100650.53;;;24.22;65.97
62111;BME280;48102;47.526;19.072;2022-08-03T06:37:05;100654.09;;;24.40;63.23
62111;BME280;48102;47.526;19.072;2022-08-03T06:40:10;100649.59;;;24.49;63.24
62111;BME280;48102;47.526;19.072;2022-08-03T06:43:15;100642.94;;;24.69;64.58
62111;BME280;48102;47.526;19.072;2022-08-03T06:46:18;100653.09;;;24.75;63.39
62111;BME280;48102;47.526;19.072;2022-08-03T06:49:21;100661.31;;;24.74;62.77
62111;BME280;48102;47.526;19.072;2022-08-03T06:52:23;100660.41;;;24.83;61.21
62111;BME280;48102;47.526;19.072;2022-08-03T06:55:40;100658.22;;;24.95;61.92
62111;BME280;48102;47.526;19.072;2022-08-03T06:58:43;100665.00;;;24.99;60.96
62111;BME280;48102;47.526;19.072;2022-08-03T07:01:48;100665.69;;;25.01;59.37
62111;BME280;48102;47.526;19.072;2022-08-03T07:04:51;100659.72;;;25.23;58.39
62111;BME280;48102;47.526;19.072;2022-08-03T07:07:55;100658.78;;;25.49;56.40
62111;BME280;48102;47.526;19.072;2022-08-03T07:10:58;100660.50;;;25.58;56.17
62111;BME280;48102;47.526;19.072;2022-08-03T07:14:01;100659.34;;;25.61;55.85
62111;BME280;48102;47.526;19.072;2022-08-03T07:17:03;100660.66;;;25.73;55.16
62111;BME280;48102;47.526;19.072;2022-08-03T07:20:13;100660.56;;;25.91;56.01
62111;BME280;48102;47.526;19.072;2022-08-03T07:23:16;100670.87;;;25.95;55.88
62111;BME280;48102;47.526;19.072;2022-08-03T07:26:21;100668.84;;;26.06;54.57
62111;BME280;48102;47.526;19.072;2022-08-03T07:29:23;100663.94;;;26.17;56.01
62111;BME280;48102;47.526;19.072;2022-08-03T07:32:26;100672.88;;;26.10;56.19
62111;BME280;48102;47.526;19.072;2022-08-03T07:35:32;100667.31;;;26.03;54.91
62111;BME280;48102;47.526;19.072;2022-08-03T07:38:35;100671.72;;;26.04;56.82
62111;BME280;48102;47.526;19.072;2022-08-03T07:41:38;100662.75;;;26.28;54.56
62111;BME280;48102;47.526;19.072;2022-08-03T07:44:44;100666.12;;;26.30;54.57
62111;BME280;48102;47.526;19.072;2022-08-03T07:47:46;100667.28;;;26.36;53.24
62111;BME280;48102;47.526;19.072;2022-08-03T07:50:55;100669.81;;;26.54;51.07
62111;BME280;48102;47.526;19.072;2022-08-03T07:53:58;100663.56;;;26.61;53.00
62111;BME280;48102;47.526;19.072;2022-08-03T07:57:02;100656.94;;;26.72;52.14
62111;BME280;48102;47.526;19.072;2022-08-03T08:00:11;100657.28;;;26.77;52.46
62111;BME280;48102;47.526;19.072;2022-08-03T08:03:14;100653.81;;;26.99;51.59
62111;BME280;48102;47.526;19.072;2022-08-03T08:06:17;100653.78;;;27.08;51.73
62111;BME280;48102;47.526;19.072;2022-08-03T08:09:20;100659.91;;;27.33;50.18
62111;BME280;48102;47.526;19.072;2022-08-03T08:12:22;100658.22;;;27.32;51.21
62111;BME280;48102;47.526;19.072;2022-08-03T08:15:25;100663.59;;;27.40;50.99
62111;BME280;48102;47.526;19.072;2022-08-03T08:18:27;100655.28;;;27.41;50.46
62111;BME280;48102;47.526;19.072;2022-08-03T08:21:34;100656.09;;;27.50;48.50
62111;BME280;48102;47.526;19.072;2022-08-03T08:25:03;100646.13;;;27.50;48.89
62111;BME280;48102;47.526;19.072;2022-08-03T08:28:06;100648.47;;;27.54;48.84
62111;BME280;48102;47.526;19.072;2022-08-03T08:31:28;100657.41;;;27.85;48.64
62111;BME280;48102;47.526;19.072;2022-08-03T08:34:31;100656.84;;;28.13;47.46
62111;BME280;48102;47.526;19.072;2022-08-03T08:37:34;100650.37;;;28.14;46.01
62111;BME280;48102;47.526;19.072;2022-08-03T08:40:40;100651.50;;;28.05;45.41
62111;BME280;48102;47.526;19.072;2022-08-03T08:43:42;100652.81;;;28.09;47.29
62111;BME280;48102;47.526;19.072;2022-08-03T08:46:46;100660.16;;;28.00;46.90
62111;BME280;48102;47.526;19.072;2022-08-03T08:49:53;100658.16;;;28.17;45.45
62111;BME280;48102;47.526;19.072;2022-08-03T08:53:12;100650.56;;;28.35;46.65
62111;BME280;48102;47.526;19.072;2022-08-03T08:56:23;100651.31;;;28.44;46.16
62111;BME280;48102;47.526;19.072;2022-08-03T08:59:27;100645.06;;;28.58;45.70
62111;BME280;48102;47.526;19.072;2022-08-03T09:02:49;100646.16;;;28.49;45.70
62111;BME280;48102;47.526;19.072;2022-08-03T09:05:52;100641.69;;;28.56;46.65
62111;BME280;48102;47.526;19.072;2022-08-03T09:08:57;100637.50;;;28.68;44.00
62111;BME280;48102;47.526;19.072;2022-08-03T09:12:00;100639.19;;;28.69;44.57
62111;BME280;48102;47.526;19.072;2022-08-03T09:15:25;100643.56;;;28.70;45.54
62111;BME280;48102;47.526;19.072;2022-08-03T09:18:28;100630.56;;;28.81;46.10
62111;BME280;48102;47.526;19.072;2022-08-03T09:21:34;100639.34;;;29.12;45.96
62111;BME280;48102;47.526;19.072;2022-08-03T09:24:52;100636.69;;;29.34;44.37
62111;BME280;48102;47.526;19.072;2022-08-03T09:28:17;100637.56;;;29.56;42.63
62111;BME280;48102;47.526;19.072;2022-08-03T09:31:44;100633.78;;;29.71;43.47
62111;BME280;48102;47.526;19.072;2022-08-03T09:34:49;100632.12;;;29.98;43.25
62111;BME280;48102;47.526;19.072;2022-08-03T09:38:15;100632.59;;;30.30;41.78
62111;BME280;48102;47.526;19.072;2022-08-03T09:41:17;100636.69;;;30.76;41.73
62111;BME280;48102;47.526;19.072;2022-08-03T09:44:33;100629.38;;;30.83;38.67
62111;BME280;48102;47.526;19.072;2022-08-03T09:47:37;100636.03;;;30.73;40.28
62111;BME280;48102;47.526;19.072;2022-08-03T09:50:58;100622.44;;;30.73;40.64
62111;BME280;48102;47.526;19.072;2022-08-03T09:54:26;100622.88;;;30.77;41.53
62111;BME280;48102;47.526;19.072;2022-08-03T09:57:29;100618.06;;;30.44;40.56
62111;BME280;48102;47.526;19.072;2022-08-03T10:01:01;100617.47;;;30.49;40.63
62111;BME280;48102;47.526;19.072;2022-08-03T10:04:13;100614.09;;;30.75;41.50
62111;BME280;48102;47.526;19.072;2022-08-03T10:07:23;100609.50;;;30.76;38.99
62111;BME280;48102;47.526;19.072;2022-08-03T10:10:41;100609.31;;;30.84;38.97
62111;BME280;48102;47.526;19.072;2022-08-03T10:13:44;100606.59;;;30.90;37.55
62111;BME280;48102;47.526;19.072;2022-08-03T10:16:48;100615.81;;;30.89;38.76
62111;BME280;48102;47.526;19.072;2022-08-03T10:19:51;100600.59;;;31.08;39.55
62111;BME280;48102;47.526;19.072;2022-08-03T10:22:54;100599.00;;;31.27;39.13
62111;BME280;48102;47.526;19.072;2022-08-03T10:26:01;100594.31;;;31.01;37.29
62111;BME280;48102;47.526;19.072;2022-08-03T10:29:08;100596.56;;;30.91;37.70
62111;BME280;48102;47.526;19.072;2022-08-03T10:32:21;100598.00;;;30.87;40.23
62111;BME280;48102;47.526;19.072;2022-08-03T10:35:28;100591.94;;;30.85;39.31
62111;BME280;48102;47.526;19.072;2022-08-03T10:38:43;100587.22;;;31.07;38.48
62111;BME280;48102;47.526;19.072;2022-08-03T10:41:51;100580.75;;;31.14;36.13
62111;BME280;48102;47.526;19.072;2022-08-03T10:45:04;100589.00;;;31.47;36.04
62111;BME280;48102;47.526;19.072;2022-08-03T10:48:08;100580.63;;;31.82;35.56
62111;BME280;48102;47.526;19.072;2022-08-03T10:51:12;100564.72;;;31.99;34.14
62111;BME280;48102;47.526;19.072;2022-08-03T10:54:50;100566.16;;;32.28;35.71
62111;BME280;48102;47.526;19.072;2022-08-03T10:58:12;100571.16;;;32.58;36.35
62111;BME280;48102;47.526;19.072;2022-08-03T11:01:52;100568.66;;;32.56;33.64
62111;BME280;48102;47.526;19.072;2022-08-03T11:05:40;100557.03;;;32.67;35.21
62111;BME280;48102;47.526;19.072;2022-08-03T11:08:44;100557.38;;;32.91;33.28
62111;BME280;48102;47.526;19.072;2022-08-03T11:11:47;100548.72;;;33.01;33.17
62111;BME280;48102;47.526;19.072;2022-08-03T11:14:52;100544.75;;;33.28;33.80
62111;BME280;48102;47.526;19.072;2022-08-03T11:18:07;100540.12;;;33.29;32.08
62111;BME280;48102;47.526;19.072;2022-08-03T11:21:13;100534.81;;;33.47;31.69
62111;BME280;48102;47.526;19.072;2022-08-03T11:28:25;100540.75;;;34.31;32.59
62111;BME280;48102;47.526;19.072;2022-08-03T11:35:11;100523.75;;;34.95;28.98
62111;BME280;48102;47.526;19.072;2022-08-03T11:38:14;100521.75;;;35.33;29.29
62111;BME280;48102;47.526;19.072;2022-08-03T11:41:32;100520.31;;;35.30;27.56
62111;BME280;48102;47.526;19.072;2022-08-03T11:44:46;100515.50;;;35.91;30.36
62111;BME280;48102;47.526;19.072;2022-08-03T11:47:54;100521.38;;;35.94;28.29
62111;BME280;48102;47.526;19.072;2022-08-03T11:50:57;100518.31;;;36.43;27.48
62111;BME280;48102;47.526;19.072;2022-08-03T11:54:02;100519.22;;;36.72;26.65
62111;BME280;48102;47.526;19.072;2022-08-03T11:57:05;100517.78;;;36.70;27.33
62111;BME280;48102;47.526;19.072;2022-08-03T12:00:31;100518.19;;;36.90;25.08
62111;BME280;48102;47.526;19.072;2022-08-03T12:03:34;100515.72;;;37.34;25.29
62111;BME280;48102;47.526;19.072;2022-08-03T12:06:37;100510.25;;;37.67;24.44
62111;BME280;48102;47.526;19.072;2022-08-03T12:10:10;100513.69;;;38.13;23.89
62111;BME280;48102;47.526;19.072;2022-08-03T12:13:14;100508.28;;;38.62;23.91
62111;BME280;48102;47.526;19.072;2022-08-03T12:16:37;100506.47;;;39.59;20.81
62111;BME280;48102;47.526;19.072;2022-08-03T12:19:43;100506.84;;;40.73;22.26
62111;BME280;48102;47.526;19.072;2022-08-03T12:22:46;100504.13;;;42.11;19.66
62111;BME280;48102;47.526;19.072;2022-08-03T12:25:49;100503.94;;;43.70;17.80
62111;BME280;48102;47.526;19.072;2022-08-03T12:28:52;100499.41;;;45.13;16.24
62111;BME280;48102;47.526;19.072;2022-08-03T12:31:55;100486.69;;;46.41;15.93
62111;BME280;48102;47.526;19.072;2022-08-03T12:34:58;100486.38;;;48.91;13.75
62111;BME280;48102;47.526;19.072;2022-08-03T12:38:05;100479.78;;;49.13;13.07
62111;BME280;48102;47.526;19.072;2022-08-03T12:41:10;100477.34;;;50.06;12.98
62111;BME280;48102;47.526;19.072;2022-08-03T12:44:15;100462.50;;;48.68;13.30
62111;BME280;48102;47.526;19.072;2022-08-03T12:47:18;100470.97;;;46.59;14.99
62111;BME280;48102;47.526;19.072;2022-08-03T12:50:24;100450.19;;;43.90;16.39
62111;BME280;48102;47.526;19.072;2022-08-03T12:53:28;100450.13;;;42.68;19.03
62111;BME280;48102;47.526;19.072;2022-08-03T12:56:31;100442.31;;;45.48;17.94
62111;BME280;48102;47.526;19.072;2022-08-03T12:59:42;100450.66;;;47.96;14.17
62111;BME280;48102;47.526;19.072;2022-08-03T13:03:01;100451.91;;;49.81;14.29
62111;BME280;48102;47.526;19.072;2022-08-03T13:06:25;100450.41;;;51.18;12.07
62111;BME280;48102;47.526;19.072;2022-08-03T13:09:29;100449.19;;;51.52;11.14
62111;BME280;48102;47.526;19.072;2022-08-03T13:12:48;100449.22;;;51.89;11.43
62111;BME280;48102;47.526;19.072;2022-08-03T13:15:53;100431.78;;;52.60;10.58
62111;BME280;48102;47.526;19.072;2022-08-03T13:18:56;100435.56;;;52.40;11.66
62111;BME280;48102;47.526;19.072;2022-08-03T13:22:00;100435.94;;;53.54;9.71
62111;BME280;48102;47.526;19.072;2022-08-03T13:25:06;100429.87;;;53.68;8.99
62111;BME280;48102;47.526;19.072;2022-08-03T13:28:09;100423.66;;;52.31;10.84
62111;BME280;48102;47.526;19.072;2022-08-03T13:31:16;100424.75;;;54.25;10.19
62111;BME280;48102;47.526;19.072;2022-08-03T13:34:18;100423.56;;;54.45;8.95
62111;BME280;48102;47.526;19.072;2022-08-03T13:37:25;100426.44;;;55.53;9.73
62111;BME280;48102;47.526;19.072;2022-08-03T13:40:30;100419.56;;;54.85;9.36
62111;BME280;48102;47.526;19.072;2022-08-03T13:43:43;100421.00;;;56.84;8.30
62111;BME280;48102;47.526;19.072;2022-08-03T13:46:48;100411.47;;;57.47;8.24
62111;BME280;48102;47.526;19.072;2022-08-03T13:49:54;100402.56;;;58.11;7.46
62111;BME280;48102;47.526;19.072;2022-08-03T13:53:03;100400.78;;;57.82;7.00
62111;BME280;48102;47.526;19.072;2022-08-03T13:56:06;100397.28;;;58.02;7.42
62111;BME280;48102;47.526;19.072;2022-08-03T13:59:08;100398.00;;;58.87;6.86
62111;BME280;48102;47.526;19.072;2022-08-03T14:02:12;100382.34;;;57.50;8.63
62111;BME280;48102;47.526;19.072;2022-08-03T14:05:18;100386.28;;;57.39;7.73
62111;BME280;48102;47.526;19.072;2022-08-03T14:08:21;100386.78;;;58.14;6.62
62111;BME280;48102;47.526;19.072;2022-08-03T14:11:24;100375.31;;;57.34;8.30
62111;BME280;48102;47.526;19.072;2022-08-03T14:14:47;100363.13;;;57.29;7.78
62111;BME280;48102;47.526;19.072;2022-08-03T14:17:50;100358.72;;;56.91;7.32
62111;BME280;48102;47.526;19.072;2022-08-03T14:20:53;100358.38;;;56.55;7.29
62111;BME280;48102;47.526;19.072;2022-08-03T14:23:59;100362.25;;;58.61;6.50
62111;BME280;48102;47.526;19.072;2022-08-03T14:27:02;100362.94;;;58.29;6.16
62111;BME280;48102;47.526;19.072;2022-08-03T14:30:11;100344.94;;;57.93;7.28
62111;BME280;48102;47.526;19.072;2022-08-03T14:33:14;100351.72;;;57.70;7.30
62111;BME280;48102;47.526;19.072;2022-08-03T14:36:17;100341.19;;;57.78;6.53
62111;BME280;48102;47.526;19.072;2022-08-03T14:39:21;100338.66;;;56.66;6.59
62111;BME280;48102;47.526;19.072;2022-08-03T14:42:24;100332.53;;;56.61;6.45
62111;BME280;48102;47.526;19.072;2022-08-03T14:45:27;100320.88;;;52.93;8.95
62111;BME280;48102;47.526;19.072;2022-08-03T14:48:30;100326.59;;;55.22;8.15
62111;BME280;48102;47.526;19.072;2022-08-03T14:51:52;100317.12;;;56.54;6.39
62111;BME280;48102;47.526;19.072;2022-08-03T14:54:56;100323.44;;;56.81;7.16
62111;BME280;48102;47.526;19.072;2022-08-03T14:57:58;100310.25;;;58.46;5.92
62111;BME280;48102;47.526;19.072;2022-08-03T15:01:04;100325.97;;;59.93;5.30
62111;BME280;48102;47.526;19.072;2022-08-03T15:04:28;100329.72;;;59.76;5.65
62111;BME280;48102;47.526;19.072;2022-08-03T15:07:31;100334.03;;;60.16;6.00
62111;BME280;48102;47.526;19.072;2022-08-03T15:10:34;100338.06;;;60.85;5.21
62111;BME280;48102;47.526;19.072;2022-08-03T15:13:42;100335.44;;;60.49;5.94
62111;BME280;48102;47.526;19.072;2022-08-03T15:16:44;100327.19;;;60.03;5.49
62111;BME280;48102;47.526;19.072;2022-08-03T15:19:47;100329.59;;;59.97;6.11
